createdAt,value
2022-11-30T00:01:23.697Z,48.90
2022-11-30T00:03:55.340Z,39.20
2022-11-30T00:06:23.680Z,41.67
2022-11-30T00:08:58.896Z,40.60
2022-11-30T00:11:28.743Z,34.20
2022-11-30T00:13:55.926Z,39.97
2022-11-30T00:16:23.320Z,42.03
2022-11-30T00:18:50.872Z,39.30
2022-11-30T00:21:17.936Z,39.20
2022-11-30T00:23:46.760Z,43.03
2022-11-30T00:26:22.620Z,37.70
2022-11-30T00:28:49.614Z,40.83
2022-11-30T00:31:19.087Z,33.23
2022-11-30T00:33:46.902Z,37.17
2022-11-30T00:36:22.203Z,36.03
2022-11-30T00:38:51.074Z,41.97
2022-11-30T00:41:19.830Z,42.60
2022-11-30T00:43:47.042Z,39.53
2022-11-30T00:46:14.964Z,37.17
2022-11-30T00:48:42.395Z,45.07
2022-11-30T00:51:11.708Z,34.17
2022-11-30T00:53:40.145Z,43.10
2022-11-30T00:56:09.054Z,41.87
2022-11-30T00:58:36.135Z,45.13
2022-11-30T01:01:03.763Z,39.83
2022-11-30T01:03:30.804Z,39.40
2022-11-30T01:06:07.105Z,38.93
2022-11-30T01:08:35.037Z,43.00
2022-11-30T01:11:11.330Z,45.90
2022-11-30T01:13:38.356Z,38.63
2022-11-30T01:16:13.195Z,41.27
2022-11-30T01:18:40.186Z,39.60
2022-11-30T01:21:16.553Z,40.03
2022-11-30T01:23:44.478Z,44.40
2022-11-30T01:26:12.587Z,41.20
2022-11-30T01:28:41.205Z,43.63
2022-11-30T01:31:11.831Z,44.83
2022-11-30T01:33:39.803Z,47.43
2022-11-30T01:36:13.754Z,37.70
2022-11-30T01:38:45.054Z,42.83
2022-11-30T01:41:16.959Z,42.10
2022-11-30T01:43:51.421Z,44.90
2022-11-30T01:46:23.404Z,41.40
2022-11-30T01:49:01.137Z,42.23
2022-11-30T01:51:40.544Z,37.93
2022-11-30T01:54:12.068Z,42.77
2022-11-30T01:56:53.821Z,39.07
2022-11-30T01:59:24.238Z,37.90
2022-11-30T02:01:52.903Z,43.67
2022-11-30T02:04:22.788Z,37.70
2022-11-30T02:06:49.771Z,40.93
2022-11-30T02:09:20.174Z,41.50
2022-11-30T02:11:48.163Z,46.10
2022-11-30T02:14:34.251Z,35.57
2022-11-30T02:18:03.129Z,41.20
2022-11-30T02:21:21.370Z,50.63
2022-11-30T02:24:21.877Z,45.87
2022-11-30T02:27:00.549Z,52.00
2022-11-30T02:29:35.259Z,44.73
2022-11-30T02:32:14.102Z,44.10
2022-11-30T02:34:43.927Z,43.03
2022-11-30T02:37:14.169Z,50.50
2022-11-30T02:39:41.274Z,43.53
2022-11-30T02:42:14.126Z,50.27
2022-11-30T02:44:50.564Z,46.70
2022-11-30T02:47:32.638Z,48.40
2022-11-30T02:50:16.823Z,42.60
2022-11-30T02:52:45.160Z,49.00
2022-11-30T02:55:18.244Z,49.10
2022-11-30T02:57:45.655Z,51.00
2022-11-30T03:00:15.287Z,45.67
2022-11-30T03:02:43.042Z,47.33
2022-11-30T03:05:10.954Z,41.30
2022-11-30T03:07:39.035Z,51.83
2022-11-30T03:10:07.534Z,53.13
2022-11-30T03:12:34.466Z,59.13
2022-11-30T03:15:01.578Z,48.00
2022-11-30T03:17:28.513Z,46.40
2022-11-30T03:19:55.424Z,45.67
2022-11-30T03:22:22.354Z,44.30
2022-11-30T03:24:49.517Z,46.33
2022-11-30T03:27:16.686Z,46.60
2022-11-30T03:29:43.639Z,45.77
2022-11-30T03:32:10.532Z,46.93
2022-11-30T03:34:37.488Z,45.83
2022-11-30T03:37:04.508Z,50.00
2022-11-30T03:39:31.445Z,45.30
2022-11-30T03:41:58.539Z,47.90
2022-11-30T03:44:25.444Z,42.10
2022-11-30T03:46:52.468Z,43.20
2022-11-30T03:49:19.464Z,46.00
2022-11-30T03:51:46.407Z,45.97
2022-11-30T03:54:13.400Z,47.70
2022-11-30T03:56:40.388Z,48.87
2022-11-30T03:59:07.359Z,47.63
2022-11-30T04:01:34.337Z,48.87
2022-11-30T04:04:01.280Z,42.87
2022-11-30T04:06:28.165Z,44.00
2022-11-30T04:08:55.159Z,48.83
2022-11-30T04:11:22.079Z,40.77
2022-11-30T04:13:48.958Z,49.03
2022-11-30T04:16:15.950Z,40.77
2022-11-30T04:18:42.929Z,46.57
2022-11-30T04:21:11.888Z,44.70
2022-11-30T04:23:40.564Z,40.40
2022-11-30T04:26:12.420Z,41.80
2022-11-30T04:28:40.023Z,46.53
2022-11-30T04:31:07.284Z,47.93
2022-11-30T04:33:34.539Z,41.93
2022-11-30T04:36:05.374Z,44.03
2022-11-30T04:38:33.809Z,52.40
2022-11-30T04:41:06.880Z,49.73
2022-11-30T04:43:33.854Z,45.03
2022-11-30T04:46:00.820Z,44.27
2022-11-30T04:48:27.658Z,44.77
2022-11-30T04:50:54.593Z,45.47
2022-11-30T04:53:21.593Z,47.37
2022-11-30T04:55:48.464Z,46.50
2022-11-30T04:58:15.350Z,116.73
2022-11-30T05:00:42.314Z,61.33
2022-11-30T05:03:09.500Z,52.50
2022-11-30T05:05:36.505Z,45.10
2022-11-30T05:08:03.510Z,51.30
2022-11-30T05:10:33.712Z,47.73
2022-11-30T05:13:01.494Z,46.33
2022-11-30T05:15:28.735Z,49.23
2022-11-30T05:18:00.733Z,52.30
2022-11-30T05:20:29.564Z,46.60
2022-11-30T05:22:56.648Z,43.77
2022-11-30T05:25:23.668Z,52.57
2022-11-30T05:27:50.648Z,44.20
2022-11-30T05:30:17.848Z,49.07
2022-11-30T05:32:44.825Z,52.60
2022-11-30T05:35:11.933Z,47.63
2022-11-30T05:37:38.842Z,45.70
2022-11-30T05:40:07.107Z,44.77
2022-11-30T05:42:34.068Z,48.00
2022-11-30T05:45:00.997Z,41.37
2022-11-30T05:47:27.889Z,49.47
2022-11-30T05:49:54.789Z,42.27
2022-11-30T05:52:21.764Z,54.13
2022-11-30T05:54:48.985Z,43.63
2022-11-30T05:57:16.194Z,43.17
2022-11-30T05:59:43.133Z,45.50
2022-11-30T06:02:10.147Z,45.10
2022-11-30T06:04:37.190Z,41.13
2022-11-30T06:07:04.649Z,42.40
2022-11-30T06:09:31.552Z,42.10
2022-11-30T06:11:58.542Z,40.90
2022-11-30T06:14:25.443Z,45.60
2022-11-30T06:16:52.430Z,46.90
2022-11-30T06:19:19.456Z,48.27
2022-11-30T06:21:46.329Z,42.97
2022-11-30T06:24:13.346Z,46.37
2022-11-30T06:26:40.324Z,44.70
2022-11-30T06:29:07.266Z,51.90
2022-11-30T06:31:34.286Z,42.47
2022-11-30T06:34:01.244Z,39.80
2022-11-30T06:36:34.174Z,49.20
2022-11-30T06:39:04.073Z,48.07
2022-11-30T06:41:30.984Z,44.33
2022-11-30T06:43:57.864Z,43.73
2022-11-30T06:46:25.232Z,44.63
2022-11-30T06:48:52.168Z,42.40
2022-11-30T06:51:19.384Z,48.23
2022-11-30T06:53:47.341Z,47.63
2022-11-30T06:56:14.400Z,53.43
2022-11-30T06:58:42.894Z,49.67
2022-11-30T07:01:14.426Z,44.00
2022-11-30T07:03:42.498Z,48.23
2022-11-30T07:06:14.919Z,45.57
2022-11-30T07:08:43.952Z,51.90
2022-11-30T07:11:12.804Z,48.77
2022-11-30T07:13:39.924Z,55.80
2022-11-30T07:16:11.310Z,50.00
2022-11-30T07:18:39.289Z,46.23
2022-11-30T07:21:07.404Z,46.40
2022-11-30T07:23:56.876Z,47.03
2022-11-30T07:26:25.582Z,41.60
2022-11-30T07:28:55.364Z,49.40
2022-11-30T07:31:36.584Z,50.00
2022-11-30T07:34:09.221Z,50.87
2022-11-30T07:36:37.050Z,46.17
2022-11-30T07:39:04.646Z,47.97
2022-11-30T07:41:31.679Z,48.10
2022-11-30T07:43:58.755Z,53.50
2022-11-30T07:46:25.752Z,50.30
2022-11-30T07:48:52.803Z,48.97
2022-11-30T07:51:22.786Z,51.73
2022-11-30T07:53:50.539Z,57.37
2022-11-30T07:56:20.831Z,60.67
2022-11-30T07:58:50.023Z,50.40
2022-11-30T08:01:21.843Z,50.60
2022-11-30T08:03:50.831Z,53.13
2022-11-30T08:06:24.679Z,57.30
2022-11-30T08:08:54.764Z,48.20
2022-11-30T08:11:27.162Z,47.17
2022-11-30T08:13:54.759Z,44.80
2022-11-30T08:16:25.465Z,54.00
2022-11-30T08:18:53.519Z,53.87
2022-11-30T08:21:21.750Z,51.07
2022-11-30T08:23:57.080Z,53.73
2022-11-30T08:26:31.305Z,57.43
2022-11-30T08:29:00.407Z,55.97
2022-11-30T08:31:31.607Z,48.50
2022-11-30T08:34:05.773Z,49.40
2022-11-30T08:36:33.795Z,49.73
2022-11-30T08:39:05.253Z,59.60
2022-11-30T08:41:34.898Z,56.33
2022-11-30T08:44:02.003Z,53.07
2022-11-30T08:49:24.554Z,52.97
2022-11-30T08:54:46.049Z,47.17
2022-11-30T08:57:19.653Z,50.70
2022-11-30T08:59:47.527Z,50.03
2022-11-30T09:02:18.753Z,51.63
2022-11-30T09:04:49.591Z,61.37
2022-11-30T09:07:18.340Z,50.00
2022-11-30T09:09:45.688Z,56.00
2022-11-30T09:12:12.653Z,55.90
2022-11-30T09:14:39.611Z,49.43
2022-11-30T09:17:06.467Z,53.37
2022-11-30T09:19:33.397Z,55.63
2022-11-30T09:22:00.666Z,51.47
2022-11-30T09:24:27.785Z,50.10
2022-11-30T09:26:57.947Z,56.03
2022-11-30T09:29:24.966Z,49.30
2022-11-30T09:31:52.086Z,48.70
2022-11-30T09:34:19.064Z,56.10
2022-11-30T09:36:46.186Z,47.17
2022-11-30T09:39:13.239Z,56.47
2022-11-30T09:42:20.701Z,53.10
2022-11-30T09:45:11.754Z,46.23
2022-11-30T09:48:06.549Z,42.00
2022-11-30T09:50:44.355Z,53.70
2022-11-30T09:53:37.606Z,60.50
2022-11-30T09:56:19.065Z,58.33
2022-11-30T09:59:03.129Z,53.70
2022-11-30T10:01:32.814Z,50.53
2022-11-30T10:04:01.846Z,55.97
2022-11-30T10:06:57.625Z,52.23
2022-11-30T10:10:09.443Z,49.77
2022-11-30T10:12:49.151Z,55.60
2022-11-30T10:15:37.973Z,51.23
2022-11-30T10:18:47.485Z,54.17
2022-11-30T10:21:43.503Z,46.43
2022-11-30T10:24:53.553Z,44.00
2022-11-30T10:28:30.898Z,49.30
2022-11-30T10:30:51.909Z,49.27
2022-11-30T10:33:26.036Z,52.00
2022-11-30T10:36:04.817Z,61.30
2022-11-30T10:38:41.379Z,56.97
2022-11-30T10:41:14.365Z,51.00
2022-11-30T10:43:47.722Z,46.33
2022-11-30T10:46:31.788Z,54.30
2022-11-30T10:49:08.242Z,47.73
2022-11-30T10:51:39.850Z,60.00
2022-11-30T10:54:17.019Z,53.67
2022-11-30T10:56:44.460Z,53.30
2022-11-30T10:59:26.565Z,47.43
2022-11-30T11:01:54.116Z,54.33
2022-11-30T11:04:24.107Z,59.40
2022-11-30T11:06:55.768Z,49.23
2022-11-30T11:09:42.898Z,50.50
2022-11-30T11:12:19.299Z,54.37
2022-11-30T11:14:46.685Z,55.20
2022-11-30T11:17:19.979Z,46.10
2022-11-30T11:19:50.434Z,50.60
2022-11-30T11:22:30.267Z,51.27
2022-11-30T11:25:25.169Z,45.77
2022-11-30T11:28:12.156Z,53.10
2022-11-30T11:30:39.576Z,47.97
2022-11-30T11:33:12.652Z,59.00
2022-11-30T11:35:44.482Z,47.90
2022-11-30T11:38:31.751Z,54.80
2022-11-30T11:41:07.030Z,51.07
2022-11-30T11:43:55.912Z,51.40
2022-11-30T11:46:23.138Z,47.07
2022-11-30T11:49:02.071Z,47.00
2022-11-30T11:51:39.004Z,51.67
2022-11-30T11:54:48.105Z,43.13
2022-11-30T11:57:18.178Z,47.77
2022-11-30T12:00:16.595Z,46.17
2022-11-30T12:03:00.279Z,45.70
2022-11-30T12:05:49.654Z,49.67
2022-11-30T12:08:46.458Z,45.67
2022-11-30T12:11:26.259Z,44.73
2022-11-30T12:13:53.845Z,48.43
2022-11-30T12:17:01.409Z,48.20
2022-11-30T12:20:03.915Z,43.67
2022-11-30T12:23:08.285Z,44.30
2022-11-30T12:25:51.445Z,41.47
2022-11-30T12:28:54.799Z,45.40
2022-11-30T12:31:50.029Z,46.13
2022-11-30T12:34:42.714Z,47.07
2022-11-30T12:37:27.302Z,47.30
2022-11-30T12:40:24.678Z,42.73
2022-11-30T12:43:12.990Z,40.50
2022-11-30T12:45:48.088Z,34.70
2022-11-30T12:48:45.072Z,39.47
2022-11-30T12:51:29.631Z,36.90
2022-11-30T12:54:17.850Z,42.10
2022-11-30T12:57:19.114Z,36.83
2022-11-30T13:00:04.657Z,39.83
2022-11-30T13:03:03.535Z,40.90
2022-11-30T13:05:48.728Z,42.87
2022-11-30T13:08:26.166Z,45.27
2022-11-30T13:11:03.210Z,39.50
2022-11-30T13:13:34.534Z,39.07
2022-11-30T13:16:06.257Z,40.67
2022-11-30T13:18:34.989Z,33.80
2022-11-30T13:21:13.724Z,37.20
2022-11-30T13:23:55.208Z,38.23
2022-11-30T13:26:40.469Z,46.70
2022-11-30T13:29:44.922Z,38.47
2022-11-30T13:32:55.322Z,39.10
2022-11-30T13:35:29.397Z,32.93
2022-11-30T13:38:34.610Z,41.50
2022-11-30T13:41:06.109Z,38.43
2022-11-30T13:43:47.766Z,38.40
2022-11-30T13:46:20.375Z,42.77
2022-11-30T13:48:48.577Z,38.93
2022-11-30T13:51:38.597Z,48.67
2022-11-30T13:54:57.522Z,39.90
2022-11-30T13:57:30.525Z,43.17
2022-11-30T14:00:30.624Z,40.53
2022-11-30T14:03:18.290Z,47.50
2022-11-30T14:05:56.360Z,43.80
2022-11-30T14:08:23.191Z,42.83
2022-11-30T14:11:41.599Z,46.27
2022-11-30T14:14:47.490Z,50.10
2022-11-30T14:17:22.598Z,49.30
2022-11-30T14:19:59.909Z,44.20
2022-11-30T14:22:29.569Z,48.17
2022-11-30T14:24:56.921Z,48.10
2022-11-30T14:27:27.874Z,49.47
2022-11-30T14:30:01.498Z,53.37
2022-11-30T14:32:45.223Z,48.97
2022-11-30T14:35:17.221Z,54.53
2022-11-30T14:37:52.033Z,53.07
2022-11-30T14:40:22.413Z,53.67
2022-11-30T14:42:57.007Z,46.00
2022-11-30T14:45:33.435Z,44.13
2022-11-30T14:48:14.534Z,47.20
2022-11-30T14:50:52.408Z,44.50
2022-11-30T14:53:52.778Z,46.27
2022-11-30T14:57:03.491Z,43.83
2022-11-30T14:59:47.683Z,45.60
2022-11-30T15:02:22.861Z,54.30
2022-11-30T15:04:53.306Z,51.47
2022-11-30T15:07:21.418Z,55.77
2022-11-30T15:09:54.694Z,48.13
2022-11-30T15:12:24.686Z,51.53
2022-11-30T15:15:15.777Z,47.30
2022-11-30T15:18:11.060Z,49.67
2022-11-30T15:20:51.923Z,49.10
2022-11-30T15:23:18.991Z,53.77
2022-11-30T15:25:51.374Z,50.87
2022-11-30T15:28:41.879Z,51.13
2022-11-30T15:31:15.255Z,57.23
2022-11-30T15:33:48.202Z,50.57
2022-11-30T15:36:31.797Z,59.47
2022-11-30T15:39:04.490Z,50.10
2022-11-30T15:41:34.267Z,50.03
2022-11-30T15:44:04.657Z,50.57
2022-11-30T15:46:46.449Z,47.73
2022-11-30T15:49:25.374Z,47.77
2022-11-30T15:52:15.807Z,56.30
2022-11-30T15:54:57.535Z,57.23
2022-11-30T15:57:27.398Z,53.37
2022-11-30T16:00:29.990Z,50.17
2022-11-30T16:03:12.666Z,51.83
2022-11-30T16:05:40.645Z,56.27
2022-11-30T16:08:18.627Z,51.93
2022-11-30T16:10:45.688Z,56.50
2022-11-30T16:13:18.159Z,55.43
2022-11-30T16:15:49.332Z,53.97
2022-11-30T16:18:25.647Z,52.60
2022-11-30T16:21:01.755Z,57.23
2022-11-30T16:23:29.106Z,57.80
2022-11-30T16:25:56.554Z,57.17
2022-11-30T16:28:23.719Z,56.87
2022-11-30T16:30:52.014Z,55.37
2022-11-30T16:33:25.540Z,55.10
2022-11-30T16:36:00.976Z,63.93
2022-11-30T16:38:29.337Z,60.83
2022-11-30T16:41:11.993Z,62.47
2022-11-30T16:43:41.335Z,54.43
2022-11-30T16:46:22.795Z,63.40
2022-11-30T16:48:51.038Z,65.40
2022-11-30T16:51:31.706Z,61.33
2022-11-30T16:53:59.053Z,65.87
2022-11-30T16:56:26.275Z,59.67
2022-11-30T16:58:54.316Z,57.93
2022-11-30T17:01:36.742Z,58.00
2022-11-30T17:04:22.986Z,52.83
2022-11-30T17:06:53.681Z,60.03
2022-11-30T17:09:23.279Z,54.80
2022-11-30T17:11:51.605Z,57.87
2022-11-30T17:14:20.714Z,56.27
2022-11-30T17:16:47.841Z,61.07
2022-11-30T17:19:14.907Z,53.43
2022-11-30T17:21:44.800Z,53.70
2022-11-30T17:24:12.474Z,60.37
2022-11-30T17:26:39.594Z,59.00
2022-11-30T17:29:06.880Z,63.13
2022-11-30T17:31:33.974Z,58.60
2022-11-30T17:34:00.929Z,57.40
2022-11-30T17:36:29.486Z,59.60
2022-11-30T17:38:56.908Z,63.67
2022-11-30T17:41:24.009Z,56.60
2022-11-30T17:43:52.264Z,61.67
2022-11-30T17:46:19.881Z,63.50
2022-11-30T17:48:46.944Z,49.17
2022-11-30T17:51:14.464Z,53.53
2022-11-30T17:53:43.237Z,50.47
2022-11-30T17:56:17.559Z,56.10
2022-11-30T17:58:45.642Z,53.27
2022-11-30T18:01:20.768Z,52.17
2022-11-30T18:03:48.129Z,59.63
2022-11-30T18:06:16.236Z,57.90
2022-11-30T18:08:44.049Z,49.30
2022-11-30T18:11:22.714Z,60.23
2022-11-30T18:13:53.603Z,55.03
2022-11-30T18:16:30.898Z,55.03
2022-11-30T18:18:59.089Z,50.23
2022-11-30T18:21:30.010Z,62.00
2022-11-30T18:23:59.142Z,56.87
2022-11-30T18:26:27.561Z,54.63
2022-11-30T18:28:57.613Z,54.87
2022-11-30T18:31:26.308Z,55.10
2022-11-30T18:34:04.710Z,58.13
2022-11-30T18:36:32.358Z,49.17
2022-11-30T18:38:59.686Z,62.30
2022-11-30T18:41:28.679Z,55.03
2022-11-30T18:43:55.704Z,50.43
2022-11-30T18:46:23.074Z,52.13
2022-11-30T18:48:52.053Z,62.73
2022-11-30T18:51:25.141Z,55.77
2022-11-30T18:54:01.715Z,50.57
2022-11-30T18:56:32.646Z,57.63
2022-11-30T18:59:03.674Z,56.00
2022-11-30T19:01:32.237Z,58.40
2022-11-30T19:04:06.539Z,56.50
2022-11-30T19:06:34.818Z,53.83
2022-11-30T19:09:06.524Z,50.67
2022-11-30T19:11:34.111Z,54.03
2022-11-30T19:14:02.104Z,51.87
2022-11-30T19:17:07.079Z,46.00
2022-11-30T19:19:35.698Z,49.57
2022-11-30T19:22:04.242Z,58.73
2022-11-30T19:24:31.198Z,54.90
2022-11-30T19:26:59.945Z,48.33
2022-11-30T19:29:26.896Z,51.90
2022-11-30T19:31:55.074Z,53.20
2022-11-30T19:34:27.476Z,48.77
2022-11-30T19:36:55.233Z,55.97
2022-11-30T19:39:24.667Z,55.60
2022-11-30T19:41:51.839Z,56.93
2022-11-30T19:44:18.795Z,49.57
2022-11-30T19:46:45.837Z,47.93
2022-11-30T19:49:13.269Z,62.40
2022-11-30T19:51:44.014Z,56.33
2022-11-30T19:54:11.098Z,56.53
2022-11-30T19:56:39.179Z,55.67
2022-11-30T19:59:06.441Z,54.43
2022-11-30T20:01:34.999Z,52.83
2022-11-30T20:04:12.119Z,57.47
2022-11-30T20:06:39.869Z,61.90
2022-11-30T20:09:14.160Z,50.47
2022-11-30T20:11:44.833Z,52.83
2022-11-30T20:14:17.999Z,53.23
2022-11-30T20:16:45.039Z,46.20
2022-11-30T20:19:21.130Z,51.70
2022-11-30T20:22:10.303Z,48.57
2022-11-30T20:24:43.503Z,46.43
2022-11-30T20:27:17.495Z,46.63
2022-11-30T20:29:47.595Z,51.63
2022-11-30T20:32:15.787Z,47.37
2022-11-30T20:34:50.350Z,49.83
2022-11-30T20:37:20.333Z,45.70
2022-11-30T20:39:55.735Z,51.57
2022-11-30T20:42:23.078Z,50.43
2022-11-30T20:44:50.287Z,45.07
2022-11-30T20:47:26.094Z,57.47
2022-11-30T20:50:06.271Z,45.83
2022-11-30T20:52:46.063Z,49.60
2022-11-30T20:55:14.996Z,51.47
2022-11-30T20:57:55.475Z,48.93
2022-11-30T21:00:24.269Z,50.30
2022-11-30T21:02:53.174Z,42.60
2022-11-30T21:05:20.191Z,54.13
2022-11-30T21:07:49.106Z,48.10
2022-11-30T21:10:16.826Z,48.37
2022-11-30T21:12:43.858Z,44.70
2022-11-30T21:15:12.308Z,48.70
2022-11-30T21:17:41.137Z,51.57
2022-11-30T21:20:12.979Z,50.90
2022-11-30T21:22:39.948Z,50.17
2022-11-30T21:25:07.459Z,50.80
2022-11-30T21:27:34.993Z,44.10
2022-11-30T21:30:02.149Z,48.10
2022-11-30T21:32:29.113Z,42.93
2022-11-30T21:34:56.148Z,46.77
2022-11-30T21:37:23.040Z,36.23
2022-11-30T21:39:50.025Z,45.57
2022-11-30T21:42:17.068Z,41.30
2022-11-30T21:44:43.997Z,44.33
2022-11-30T21:47:13.828Z,39.63
2022-11-30T21:49:40.699Z,41.97
2022-11-30T21:52:07.649Z,41.67
2022-11-30T21:54:34.559Z,42.73
2022-11-30T21:57:01.538Z,45.30
2022-11-30T21:59:29.774Z,40.10
2022-11-30T22:01:56.808Z,36.80
2022-11-30T22:04:23.846Z,39.20
2022-11-30T22:06:50.814Z,35.13
2022-11-30T22:09:18.116Z,36.47
2022-11-30T22:11:45.976Z,39.27
2022-11-30T22:14:16.827Z,33.93
2022-11-30T22:16:44.469Z,42.57
2022-11-30T22:19:11.454Z,37.20
2022-11-30T22:21:38.633Z,32.03
2022-11-30T22:24:10.713Z,32.17
2022-11-30T22:26:41.344Z,39.83
2022-11-30T22:29:20.496Z,36.97
2022-11-30T22:31:51.192Z,34.77
2022-11-30T22:34:19.207Z,31.37
2022-11-30T22:36:47.548Z,29.33
2022-11-30T22:39:20.995Z,30.33
2022-11-30T22:41:55.157Z,36.50
2022-11-30T22:44:24.349Z,33.03
2022-11-30T22:46:51.409Z,33.37
2022-11-30T22:49:21.666Z,29.63
2022-11-30T22:51:50.041Z,27.03
2022-11-30T22:54:18.358Z,30.50
2022-11-30T22:56:46.684Z,25.33
2022-11-30T22:59:15.214Z,32.23
2022-11-30T23:01:46.240Z,27.27
2022-11-30T23:04:16.987Z,32.90
2022-11-30T23:06:45.532Z,28.60
2022-11-30T23:09:17.174Z,28.43
2022-11-30T23:11:44.524Z,25.33
2022-11-30T23:14:12.391Z,27.90
2022-11-30T23:16:40.835Z,28.23
2022-11-30T23:19:10.473Z,27.90
2022-11-30T23:21:42.097Z,24.03
2022-11-30T23:24:20.872Z,27.70
2022-11-30T23:26:48.447Z,29.20
2022-11-30T23:29:17.499Z,24.07
2022-11-30T23:31:46.177Z,21.07
2022-11-30T23:34:21.623Z,22.90
2022-11-30T23:36:51.379Z,27.67
2022-11-30T23:39:20.337Z,26.37
2022-11-30T23:41:48.435Z,23.13
2022-11-30T23:44:15.524Z,26.17
2022-11-30T23:46:42.655Z,23.80
2022-11-30T23:49:11.697Z,22.80
2022-11-30T23:51:38.622Z,25.40
2022-11-30T23:54:05.684Z,25.97
2022-11-30T23:56:32.752Z,21.33
2022-11-30T23:58:59.704Z,18.53
